Station Historical Data
Daily Summary for May 7, 2017 Units:  Both    English   Metric
« Previous Day
Next Day »
Daily Weekly Monthly Yearly Custom
  High: Low: Average:
Temperature: 52.2 °F /  11.2 °C 38.7 °F /  3.7 °C 43.7 °F /  6.5 °C
Dew Point: 41.0 °F /  5 °C 31.7 °F /  -0.2 °C 36 °F /  2.2 °C
Humidity: 93% 56% 75%
Wind Speed: 12.0mph /  19.3km/h - 4.6mph /  7.4km/h
Wind Gust: 20.0mph /  32.2km/h - -
Wind- - WNW
Pressure: 29.89 in /  1012.1 hPa 29.52 in /  999.5 hPa -
Precipitation: 0.00 in /  0 mm    
Historical Graphs
 
 
Tabular Data for May 7, 2017
Time Temperature Dew Point Pressure Wind Wind Speed Wind Gust Humidity Rainfall Rate (Hourly)
00:04 40.3 °F /  4.6 °C 38.4 °F /  3.6 °C 29.52in /  999.5hPa WNW 3.0mph /  4.8km/h 9.0mph /  14.5km/h 93% 0.03in /  0.76mm
00:09 40.3 °F /  4.6 °C 38.4 °F /  3.6 °C 29.52in /  999.5hPa NW 5.0mph /  8km/h 12.0mph /  19.3km/h 93% 0.03in /  0.76mm
00:14 40.3 °F /  4.6 °C 38.4 °F /  3.6 °C 29.52in /  999.5hPa NE 5.0mph /  8km/h 7.0mph /  11.3km/h 93% 0.03in /  0.76mm
00:19 40.3 °F /  4.6 °C 38.4 °F /  3.6 °C 29.52in /  999.5hPa WNW 4.0mph /  6.4km/h 8.0mph /  12.9km/h 93% 0.02in /  0.51mm
00:24 40.3 °F /  4.6 °C 38.4 °F /  3.6 °C 29.53in /  999.9hPa NW 4.0mph /  6.4km/h 9.0mph /  14.5km/h 93% 0.02in /  0.51mm
00:29 40.3 °F /  4.6 °C 38.4 °F /  3.6 °C 29.53in /  999.9hPa NW 4.0mph /  6.4km/h 9.0mph /  14.5km/h 93% 0.02in /  0.51mm
00:34 40.4 °F /  4.7 °C 38.5 °F /  3.6 °C 29.52in /  999.5hPa NW 4.0mph /  6.4km/h 9.0mph /  14.5km/h 93% 0.02in /  0.51mm
00:39 40.3 °F /  4.6 °C 38.4 °F /  3.6 °C 29.53in /  999.9hPa NNW 2.0mph /  3.2km/h 7.0mph /  11.3km/h 93% 0.02in /  0.51mm
00:44 40.4 °F /  4.7 °C 38.5 °F /  3.6 °C 29.53in /  999.9hPa NNW 3.0mph /  4.8km/h 8.0mph /  12.9km/h 93% 0.01in /  0.25mm
00:49 40.3 °F /  4.6 °C 38.4 °F /  3.6 °C 29.53in /  999.9hPa North 5.0mph /  8km/h 8.0mph /  12.9km/h 93% 0.01in /  0.25mm
00:54 40.2 °F /  4.6 °C 38.3 °F /  3.5 °C 29.53in /  999.9hPa NW 6.0mph /  9.7km/h 7.0mph /  11.3km/h 93% 0.01in /  0.25mm
00:59 40.3 °F /  4.6 °C 38.4 °F /  3.6 °C 29.53in /  999.9hPa NW 4.0mph /  6.4km/h 10.0mph /  16.1km/h 93% 0.01in /  0.25mm
01:04 40.3 °F /  4.6 °C 38.4 °F /  3.6 °C 29.53in /  999.9hPa NW 4.0mph /  6.4km/h 10.0mph /  16.1km/h 93% 0.00in /  0mm
01:09 40.4 °F /  4.7 °C 38.5 °F /  3.6 °C 29.53in /  999.9hPa WNW 3.0mph /  4.8km/h 10.0mph /  16.1km/h 93% 0.01in /  0.25mm
01:14 40.4 °F /  4.7 °C 38.5 °F /  3.6 °C 29.53in /  999.9hPa NW 2.0mph /  3.2km/h 8.0mph /  12.9km/h 93% 0.01in /  0.25mm
01:19 40.4 °F /  4.7 °C 38.5 °F /  3.6 °C 29.54in /  1000.2hPa WNW 2.0mph /  3.2km/h 5.0mph /  8km/h 93% 0.01in /  0.25mm
01:24 40.5 °F /  4.7 °C 38.6 °F /  3.7 °C 29.53in /  999.9hPa WNW 4.0mph /  6.4km/h 6.0mph /  9.7km/h 93% 0.01in /  0.25mm
01:29 40.5 °F /  4.7 °C 38.6 °F /  3.7 °C 29.53in /  999.9hPa WNW 3.0mph /  4.8km/h 7.0mph /  11.3km/h 93% 0.01in /  0.25mm
01:34 40.5 °F /  4.7 °C 38.6 °F /  3.7 °C 29.54in /  1000.2hPa WNW 4.0mph /  6.4km/h 8.0mph /  12.9km/h 93% 0.02in /  0.51mm
01:39 40.5 °F /  4.7 °C 38.6 °F /  3.7 °C 29.54in /  1000.2hPa NW 1.0mph /  1.6km/h 7.0mph /  11.3km/h 93% 0.02in /  0.51mm
01:44 40.5 °F /  4.7 °C 38.6 °F /  3.7 °C 29.54in /  1000.2hPa North 3.0mph /  4.8km/h 10.0mph /  16.1km/h 93% 0.02in /  0.51mm
01:49 40.5 °F /  4.7 °C 38.6 °F /  3.7 °C 29.54in /  1000.2hPa WNW 6.0mph /  9.7km/h 10.0mph /  16.1km/h 93% 0.02in /  0.51mm
01:54 40.5 °F /  4.7 °C 38.6 °F /  3.7 °C 29.54in /  1000.2hPa WNW 3.0mph /  4.8km/h 9.0mph /  14.5km/h 93% 0.02in /  0.51mm
01:59 40.5 °F /  4.7 °C 38.6 °F /  3.7 °C 29.54in /  1000.2hPa WNW 4.0mph /  6.4km/h 9.0mph /  14.5km/h 93% 0.02in /  0.51mm
02:04 40.5 °F /  4.7 °C 38.6 °F /  3.7 °C 29.54in /  1000.2hPa WNW 4.0mph /  6.4km/h 10.0mph /  16.1km/h 93% 0.03in /  0.76mm
02:09 40.5 °F /  4.7 °C 38.4 °F /  3.6 °C 29.54in /  1000.2hPa NW 5.0mph /  8km/h 10.0mph /  16.1km/h 92% 0.02in /  0.51mm
02:14 40.6 °F /  4.8 °C 38.5 °F /  3.6 °C 29.54in /  1000.2hPa NW 5.0mph /  8km/h 10.0mph /  16.1km/h 92% 0.02in /  0.51mm
02:19 40.6 °F /  4.8 °C 38.5 °F /  3.6 °C 29.54in /  1000.2hPa NW 4.0mph /  6.4km/h 10.0mph /  16.1km/h 92% 0.02in /  0.51mm
02:24 40.6 °F /  4.8 °C 38.5 °F /  3.6 °C 29.54in /  1000.2hPa NW 7.0mph /  11.3km/h 10.0mph /  16.1km/h 92% 0.02in /  0.51mm
02:29 40.5 °F /  4.7 °C 38.4 °F /  3.6 °C 29.54in /  1000.2hPa NW 3.0mph /  4.8km/h 12.0mph /  19.3km/h 92% 0.02in /  0.51mm
02:34 40.5 °F /  4.7 °C 38.4 °F /  3.6 °C 29.54in /  1000.2hPa NW 6.0mph /  9.7km/h 13.0mph /  20.9km/h 92% 0.01in /  0.25mm
02:39 40.5 °F /  4.7 °C 38.4 °F /  3.6 °C 29.55in /  1000.6hPa West 6.0mph /  9.7km/h 10.0mph /  16.1km/h 92% 0.01in /  0.25mm
02:44 40.3 °F /  4.6 °C 38.2 °F /  3.4 °C 29.55in /  1000.6hPa NNW 12.0mph /  19.3km/h 16.0mph /  25.7km/h 92% 0.01in /  0.25mm
02:49 40.3 °F /  4.6 °C 38.2 °F /  3.4 °C 29.55in /  1000.6hPa NNE 10.0mph /  16.1km/h 12.0mph /  19.3km/h 92% 0.01in /  0.25mm
02:54 40.2 °F /  4.6 °C 38.1 °F /  3.4 °C 29.55in /  1000.6hPa NNE 7.0mph /  11.3km/h 11.0mph /  17.7km/h 92% 0.01in /  0.25mm
02:59 40.2 °F /  4.6 °C 38.1 °F /  3.4 °C 29.55in /  1000.6hPa NW 6.0mph /  9.7km/h 16.0mph /  25.7km/h 92% 0.01in /  0.25mm
03:04 40.2 °F /  4.6 °C 38.1 °F /  3.4 °C 29.55in /  1000.6hPa WNW 6.0mph /  9.7km/h 16.0mph /  25.7km/h 92% 0.00in /  0mm
03:09 40.3 °F /  4.6 °C 37.9 °F /  3.3 °C 29.55in /  1000.6hPa WNW 5.0mph /  8km/h 11.0mph /  17.7km/h 91% 0.01in /  0.25mm
03:14 40.3 °F /  4.6 °C 37.9 °F /  3.3 °C 29.56in /  1000.9hPa WNW 5.0mph /  8km/h 10.0mph /  16.1km/h 91% 0.01in /  0.25mm
03:19 40.4 °F /  4.7 °C 38.0 °F /  3.3 °C 29.56in /  1000.9hPa WNW 4.0mph /  6.4km/h 9.0mph /  14.5km/h 91% 0.01in /  0.25mm
03:24 40.3 °F /  4.6 °C 37.9 °F /  3.3 °C 29.56in /  1000.9hPa WNW 4.0mph /  6.4km/h 9.0mph /  14.5km/h 91% 0.01in /  0.25mm
03:29 40.2 °F /  4.6 °C 37.8 °F /  3.2 °C 29.56in /  1000.9hPa WNW 4.0mph /  6.4km/h 12.0mph /  19.3km/h 91% 0.01in /  0.25mm
03:34 40.2 °F /  4.6 °C 37.8 °F /  3.2 °C 29.57in /  1001.2hPa WNW 5.0mph /  8km/h 12.0mph /  19.3km/h 91% 0.01in /  0.25mm
03:39 40.1 °F /  4.5 °C 37.7 °F /  3.2 °C 29.57in /  1001.2hPa WNW 6.0mph /  9.7km/h 16.0mph /  25.7km/h 91% 0.01in /  0.25mm
03:44 40.2 °F /  4.6 °C 37.8 °F /  3.2 °C 29.57in /  1001.2hPa WNW 2.0mph /  3.2km/h 15.0mph /  24.1km/h 91% 0.01in /  0.25mm
03:49 40.1 °F /  4.5 °C 37.7 °F /  3.2 °C 29.58in /  1001.6hPa NW 5.0mph /  8km/h 10.0mph /  16.1km/h 91% 0.01in /  0.25mm
03:54 40.1 °F /  4.5 °C 37.7 °F /  3.2 °C 29.58in /  1001.6hPa WNW 2.0mph /  3.2km/h 8.0mph /  12.9km/h 91% 0.01in /  0.25mm
03:59 40.1 °F /  4.5 °C 37.7 °F /  3.2 °C 29.58in /  1001.6hPa WNW 4.0mph /  6.4km/h 11.0mph /  17.7km/h 91% 0.01in /  0.25mm
04:04 40.0 °F /  4.4 °C 37.6 °F /  3.1 °C 29.58in /  1001.6hPa NW 4.0mph /  6.4km/h 11.0mph /  17.7km/h 91% 0.01in /  0.25mm
04:09 39.9 °F /  4.4 °C 37.2 °F /  2.9 °C 29.58in /  1001.6hPa WNW 5.0mph /  8km/h 9.0mph /  14.5km/h 90% 0.00in /  0mm
04:14 39.8 °F /  4.3 °C 37.1 °F /  2.8 °C 29.58in /  1001.6hPa WNW 6.0mph /  9.7km/h 8.0mph /  12.9km/h 90% 0.01in /  0.25mm
04:19 39.8 °F /  4.3 °C 37.1 °F /  2.8 °C 29.58in /  1001.6hPa West 3.0mph /  4.8km/h 8.0mph /  12.9km/h 90% 0.01in /  0.25mm
04:24 39.8 °F /  4.3 °C 37.4 °F /  3 °C 29.59in /  1001.9hPa NW 5.0mph /  8km/h 9.0mph /  14.5km/h 91% 0.01in /  0.25mm
04:29 39.7 °F /  4.3 °C 37.0 °F /  2.8 °C 29.59in /  1001.9hPa NW 6.0mph /  9.7km/h 10.0mph /  16.1km/h 90% 0.02in /  0.51mm
04:34 39.6 °F /  4.2 °C 36.9 °F /  2.7 °C 29.59in /  1001.9hPa WNW 5.0mph /  8km/h 13.0mph /  20.9km/h 90% 0.02in /  0.51mm
04:39 39.6 °F /  4.2 °C 36.9 °F /  2.7 °C 29.60in /  1002.3hPa WNW 6.0mph /  9.7km/h 13.0mph /  20.9km/h 90% 0.03in /  0.76mm
04:44 39.5 °F /  4.2 °C 36.8 °F /  2.7 °C 29.60in /  1002.3hPa NW 5.0mph /  8km/h 11.0mph /  17.7km/h 90% 0.03in /  0.76mm
04:49 39.5 °F /  4.2 °C 37.1 °F /  2.8 °C 29.60in /  1002.3hPa NW 3.0mph /  4.8km/h 9.0mph /  14.5km/h 91% 0.03in /  0.76mm
04:54 39.5 °F /  4.2 °C 37.1 °F /  2.8 °C 29.60in /  1002.3hPa WNW 4.0mph /  6.4km/h 11.0mph /  17.7km/h 91% 0.04in /  1.02mm
04:59 39.4 °F /  4.1 °C 37.0 °F /  2.8 °C 29.60in /  1002.3hPa NW 7.0mph /  11.3km/h 8.0mph /  12.9km/h 91% 0.04in /  1.02mm
05:04 39.4 °F /  4.1 °C 37.0 °F /  2.8 °C 29.60in /  1002.3hPa WNW 5.0mph /  8km/h 10.0mph /  16.1km/h 91% 0.05in /  1.27mm
05:09 39.4 °F /  4.1 °C 37.0 °F /  2.8 °C 29.60in /  1002.3hPa WNW 5.0mph /  8km/h 11.0mph /  17.7km/h 91% 0.05in /  1.27mm
05:14 39.2 °F /  4 °C 36.8 °F /  2.7 °C 29.60in /  1002.3hPa WNW 6.0mph /  9.7km/h 13.0mph /  20.9km/h 91% 0.04in /  1.02mm
05:19 39.0 °F /  3.9 °C 36.6 °F /  2.6 °C 29.61in /  1002.6hPa WNW 2.0mph /  3.2km/h 10.0mph /  16.1km/h 91% 0.04in /  1.02mm
05:24 38.9 °F /  3.8 °C 36.5 °F /  2.5 °C 29.61in /  1002.6hPa NW 6.0mph /  9.7km/h 9.0mph /  14.5km/h 91% 0.04in /  1.02mm
05:29 38.8 °F /  3.8 °C 36.4 °F /  2.4 °C 29.61in /  1002.6hPa NW 6.0mph /  9.7km/h 15.0mph /  24.1km/h 91% 0.04in /  1.02mm
05:34 38.8 °F /  3.8 °C 36.4 °F /  2.4 °C 29.61in /  1002.6hPa NW 6.0mph /  9.7km/h 12.0mph /  19.3km/h 91% 0.04in /  1.02mm
05:39 38.8 °F /  3.8 °C 36.4 °F /  2.4 °C 29.61in /  1002.6hPa NW 5.0mph /  8km/h 12.0mph /  19.3km/h 91% 0.03in /  0.76mm
05:44 38.8 °F /  3.8 °C 36.1 °F /  2.3 °C 29.61in /  1002.6hPa NW 6.0mph /  9.7km/h 13.0mph /  20.9km/h 90% 0.03in /  0.76mm
05:49 38.8 °F /  3.8 °C 36.1 °F /  2.3 °C 29.62in /  1002.9hPa NW 5.0mph /  8km/h 13.0mph /  20.9km/h 90% 0.03in /  0.76mm
05:54 38.8 °F /  3.8 °C 36.1 °F /  2.3 °C 29.62in /  1002.9hPa NW 4.0mph /  6.4km/h 12.0mph /  19.3km/h 90% 0.02in /  0.51mm
05:59 38.9 °F /  3.8 °C 36.2 °F /  2.3 °C 29.62in /  1002.9hPa NW 4.0mph /  6.4km/h 12.0mph /  19.3km/h 90% 0.02in /  0.51mm
06:04 38.9 °F /  3.8 °C 36.2 °F /  2.3 °C 29.62in /  1002.9hPa NW 4.0mph /  6.4km/h 10.0mph /  16.1km/h 90% 0.01in /  0.25mm
06:09 39.0 °F /  3.9 °C 36.3 °F /  2.4 °C 29.63in /  1003.3hPa NW 5.0mph /  8km/h 11.0mph /  17.7km/h 90% 0.02in /  0.51mm
06:14 38.9 °F /  3.8 °C 36.2 °F /  2.3 °C 29.63in /  1003.3hPa West 8.0mph /  12.9km/h 13.0mph /  20.9km/h 90% 0.02in /  0.51mm
06:19 38.9 °F /  3.8 °C 36.2 °F /  2.3 °C 29.63in /  1003.3hPa NNW 5.0mph /  8km/h 19.0mph /  30.6km/h 90% 0.02in /  0.51mm
06:24 38.8 °F /  3.8 °C 36.1 °F /  2.3 °C 29.63in /  1003.3hPa WNW 5.0mph /  8km/h 14.0mph /  22.5km/h 90% 0.02in /  0.51mm
06:29 38.7 °F /  3.7 °C 35.7 °F /  2.1 °C 29.64in /  1003.6hPa WNW 4.0mph /  6.4km/h 10.0mph /  16.1km/h 89% 0.01in /  0.25mm
06:34 38.7 °F /  3.7 °C 35.7 °F /  2.1 °C 29.64in /  1003.6hPa WNW 4.0mph /  6.4km/h 9.0mph /  14.5km/h 89% 0.01in /  0.25mm
06:39 38.7 °F /  3.7 °C 35.7 °F /  2.1 °C 29.64in /  1003.6hPa NW 5.0mph /  8km/h 12.0mph /  19.3km/h 89% 0.01in /  0.25mm
06:44 38.8 °F /  3.8 °C 35.6 °F /  2 °C 29.64in /  1003.6hPa NW 6.0mph /  9.7km/h 12.0mph /  19.3km/h 88% 0.01in /  0.25mm
06:49 38.8 °F /  3.8 °C 35.6 °F /  2 °C 29.64in /  1003.6hPa NW 5.0mph /  8km/h 11.0mph /  17.7km/h 88% 0.01in /  0.25mm
06:54 38.8 °F /  3.8 °C 35.6 °F /  2 °C 29.65in /  1003.9hPa NW 4.0mph /  6.4km/h 14.0mph /  22.5km/h 88% 0.01in /  0.25mm
06:59 38.8 °F /  3.8 °C 35.6 °F /  2 °C 29.65in /  1003.9hPa NW 4.0mph /  6.4km/h 10.0mph /  16.1km/h 88% 0.01in /  0.25mm
07:04 39.0 °F /  3.9 °C 35.5 °F /  1.9 °C 29.65in /  1003.9hPa WNW 3.0mph /  4.8km/h 13.0mph /  20.9km/h 87% 0.01in /  0.25mm
07:09 39.1 °F /  3.9 °C 35.6 °F /  2 °C 29.65in /  1003.9hPa NW 5.0mph /  8km/h 13.0mph /  20.9km/h 87% 0.00in /  0mm
07:14 39.3 °F /  4.1 °C 35.5 °F /  1.9 °C 29.66in /  1004.3hPa NNW 4.0mph /  6.4km/h 12.0mph /  19.3km/h 86% 0.00in /  0mm
07:19 39.5 °F /  4.2 °C 35.4 °F /  1.9 °C 29.66in /  1004.3hPa NW 4.0mph /  6.4km/h 10.0mph /  16.1km/h 85% 0.00in /  0mm
07:24 39.7 °F /  4.3 °C 35.6 °F /  2 °C 29.66in /  1004.3hPa NW 4.0mph /  6.4km/h 13.0mph /  20.9km/h 85% 0.00in /  0mm
07:29 39.8 °F /  4.3 °C 35.4 °F /  1.9 °C 29.66in /  1004.3hPa NW 4.0mph /  6.4km/h 11.0mph /  17.7km/h 84% 0.00in /  0mm
07:34 39.7 °F /  4.3 °C 35.0 °F /  1.7 °C 29.66in /  1004.3hPa NW 5.0mph /  8km/h 11.0mph /  17.7km/h 83% 0.00in /  0mm
07:39 39.9 °F /  4.4 °C 35.2 °F /  1.8 °C 29.66in /  1004.3hPa NW 5.0mph /  8km/h 11.0mph /  17.7km/h 83% 0.00in /  0mm
07:44 40.0 °F /  4.4 °C 35.3 °F /  1.8 °C 29.66in /  1004.3hPa WNW 5.0mph /  8km/h 10.0mph /  16.1km/h 83% 0.00in /  0mm
07:49 40.0 °F /  4.4 °C 35.3 °F /  1.8 °C 29.67in /  1004.6hPa WNW 4.0mph /  6.4km/h 10.0mph /  16.1km/h 83% 0.00in /  0mm
07:54 40.2 °F /  4.6 °C 35.1 °F /  1.7 °C 29.67in /  1004.6hPa NW 5.0mph /  8km/h 11.0mph /  17.7km/h 82% 0.00in /  0mm
07:59 40.3 °F /  4.6 °C 34.9 °F /  1.6 °C 29.67in /  1004.6hPa NNW 2.0mph /  3.2km/h 14.0mph /  22.5km/h 81% 0.00in /  0mm
08:04 40.6 °F /  4.8 °C 35.2 °F /  1.8 °C 29.67in /  1004.6hPa NNW 2.0mph /  3.2km/h 10.0mph /  16.1km/h 81% 0.00in /  0mm
08:09 40.7 °F /  4.8 °C 35.0 °F /  1.7 °C 29.67in /  1004.6hPa NW 4.0mph /  6.4km/h 10.0mph /  16.1km/h 80% 0.00in /  0mm
08:14 40.8 °F /  4.9 °C 35.1 °F /  1.7 °C 29.67in /  1004.6hPa NW 4.0mph /  6.4km/h 12.0mph /  19.3km/h 80% 0.00in /  0mm
08:19 40.5 °F /  4.7 °C 34.8 °F /  1.6 °C 29.67in /  1004.6hPa NW 5.0mph /  8km/h 14.0mph /  22.5km/h 80% 0.00in /  0mm
08:24 40.3 °F /  4.6 °C 34.9 °F /  1.6 °C 29.68in /  1005hPa NNW 3.0mph /  4.8km/h 14.0mph /  22.5km/h 81% 0.00in /  0mm
08:29 40.1 °F /  4.5 °C 34.7 °F /  1.5 °C 29.68in /  1005hPa NNW 8.0mph /  12.9km/h 10.0mph /  16.1km/h 81% 0.00in /  0mm
08:34 40.1 °F /  4.5 °C 35.0 °F /  1.7 °C 29.68in /  1005hPa NW 5.0mph /  8km/h 12.0mph /  19.3km/h 82% 0.00in /  0mm
08:39 40.3 °F /  4.6 °C 35.2 °F /  1.8 °C 29.68in /  1005hPa WNW 6.0mph /  9.7km/h 13.0mph /  20.9km/h 82% 0.00in /  0mm
08:44 40.4 °F /  4.7 °C 35.0 °F /  1.7 °C 29.69in /  1005.3hPa WNW 6.0mph /  9.7km/h 14.0mph /  22.5km/h 81% 0.00in /  0mm
08:49 40.4 °F /  4.7 °C 35.0 °F /  1.7 °C 29.69in /  1005.3hPa WNW 6.0mph /  9.7km/h 14.0mph /  22.5km/h 81% 0.00in /  0mm
08:54 40.4 °F /  4.7 °C 34.7 °F /  1.5 °C 29.69in /  1005.3hPa West 10.0mph /  16.1km/h 13.0mph /  20.9km/h 80% 0.00in /  0mm
08:59 40.8 °F /  4.9 °C 35.1 °F /  1.7 °C 29.69in /  1005.3hPa WNW 5.0mph /  8km/h 14.0mph /  22.5km/h 80% 0.00in /  0mm
09:04 40.9 °F /  4.9 °C 34.9 °F /  1.6 °C 29.69in /  1005.3hPa NNW 3.0mph /  4.8km/h 13.0mph /  20.9km/h 79% 0.00in /  0mm
09:09 41.3 °F /  5.2 °C 35.3 °F /  1.8 °C 29.69in /  1005.3hPa West 3.0mph /  4.8km/h 11.0mph /  17.7km/h 79% 0.00in /  0mm
09:14 41.9 °F /  5.5 °C 35.9 °F /  2.2 °C 29.69in /  1005.3hPa NW 5.0mph /  8km/h 12.0mph /  19.3km/h 79% 0.00in /  0mm
09:19 41.8 °F /  5.4 °C 35.4 °F /  1.9 °C 29.70in /  1005.6hPa WNW 5.0mph /  8km/h 12.0mph /  19.3km/h 78% 0.00in /  0mm
09:24 41.6 °F /  5.3 °C 35.2 °F /  1.8 °C 29.70in /  1005.6hPa WNW 5.0mph /  8km/h 13.0mph /  20.9km/h 78% 0.00in /  0mm
09:29 41.4 °F /  5.2 °C 34.7 °F /  1.5 °C 29.70in /  1005.6hPa WNW 5.0mph /  8km/h 13.0mph /  20.9km/h 77% 0.00in /  0mm
09:34 40.9 °F /  4.9 °C 34.6 °F /  1.4 °C 29.70in /  1005.6hPa WNW 6.0mph /  9.7km/h 11.0mph /  17.7km/h 78% 0.00in /  0mm
09:39 40.8 °F /  4.9 °C 34.5 °F /  1.4 °C 29.70in /  1005.6hPa West 11.0mph /  17.7km/h 12.0mph /  19.3km/h 78% 0.00in /  0mm
09:44 40.8 °F /  4.9 °C 34.8 °F /  1.6 °C 29.71in /  1006hPa WNW 7.0mph /  11.3km/h 12.0mph /  19.3km/h 79% 0.00in /  0mm
09:49 40.9 °F /  4.9 °C 34.2 °F /  1.2 °C 29.70in /  1005.6hPa NNW 5.0mph /  8km/h 15.0mph /  24.1km/h 77% 0.00in /  0mm
09:54 41.5 °F /  5.3 °C 34.8 °F /  1.6 °C 29.70in /  1005.6hPa NW 3.0mph /  4.8km/h 11.0mph /  17.7km/h 77% 0.00in /  0mm
09:59 41.7 °F /  5.4 °C 34.7 °F /  1.5 °C 29.71in /  1006hPa NNW 6.0mph /  9.7km/h 11.0mph /  17.7km/h 76% 0.00in /  0mm
10:04 41.4 °F /  5.2 °C 34.7 °F /  1.5 °C 29.72in /  1006.3hPa WNW 5.0mph /  8km/h 10.0mph /  16.1km/h 77% 0.00in /  0mm
10:09 41.4 °F /  5.2 °C 35.1 °F /  1.7 °C 29.72in /  1006.3hPa NNW 4.0mph /  6.4km/h 10.0mph /  16.1km/h 78% 0.00in /  0mm
10:14 41.4 °F /  5.2 °C 35.1 °F /  1.7 °C 29.72in /  1006.3hPa NW 3.0mph /  4.8km/h 11.0mph /  17.7km/h 78% 0.00in /  0mm
10:19 41.9 °F /  5.5 °C 35.5 °F /  1.9 °C 29.72in /  1006.3hPa WNW 5.0mph /  8km/h 11.0mph /  17.7km/h 78% 0.00in /  0mm
10:24 42.1 °F /  5.6 °C 35.4 °F /  1.9 °C 29.72in /  1006.3hPa WNW 4.0mph /  6.4km/h 9.0mph /  14.5km/h 77% 0.00in /  0mm
10:29 42.5 °F /  5.8 °C 34.8 °F /  1.6 °C 29.72in /  1006.3hPa WNW 5.0mph /  8km/h 10.0mph /  16.1km/h 74% 0.00in /  0mm
10:34 42.4 °F /  5.8 °C 34.0 °F /  1.1 °C 29.72in /  1006.3hPa WNW 10.0mph /  16.1km/h 13.0mph /  20.9km/h 72% 0.00in /  0mm
10:39 42.6 °F /  5.9 °C 33.9 °F /  1.1 °C 29.72in /  1006.3hPa WNW 7.0mph /  11.3km/h 13.0mph /  20.9km/h 71% 0.00in /  0mm
10:44 43.0 °F /  6.1 °C 34.2 °F /  1.2 °C 29.72in /  1006.3hPa WNW 7.0mph /  11.3km/h 10.0mph /  16.1km/h 71% 0.00in /  0mm
10:49 43.2 °F /  6.2 °C 34.1 °F /  1.2 °C 29.72in /  1006.3hPa West 2.0mph /  3.2km/h 9.0mph /  14.5km/h 70% 0.00in /  0mm
10:54 43.2 °F /  6.2 °C 34.1 °F /  1.2 °C 29.72in /  1006.3hPa WNW 3.0mph /  4.8km/h 11.0mph /  17.7km/h 70% 0.00in /  0mm
10:59 43.3 °F /  6.3 °C 34.2 °F /  1.2 °C 29.72in /  1006.3hPa WNW 3.0mph /  4.8km/h 10.0mph /  16.1km/h 70% 0.00in /  0mm
11:04 43.8 °F /  6.6 °C 35.0 °F /  1.7 °C 29.72in /  1006.3hPa WNW 4.0mph /  6.4km/h 12.0mph /  19.3km/h 71% 0.00in /  0mm
11:09 44.0 °F /  6.7 °C 34.1 °F /  1.2 °C 29.72in /  1006.3hPa West 6.0mph /  9.7km/h 11.0mph /  17.7km/h 68% 0.00in /  0mm
11:14 44.2 °F /  6.8 °C 33.6 °F /  0.9 °C 29.73in /  1006.7hPa WNW 6.0mph /  9.7km/h 15.0mph /  24.1km/h 66% 0.00in /  0mm
11:19 44.5 °F /  6.9 °C 33.5 °F /  0.8 °C 29.73in /  1006.7hPa WNW 6.0mph /  9.7km/h 15.0mph /  24.1km/h 65% 0.00in /  0mm
11:24 44.4 °F /  6.9 °C 33.4 °F /  0.8 °C 29.73in /  1006.7hPa WNW 6.0mph /  9.7km/h 13.0mph /  20.9km/h 65% 0.00in /  0mm
11:29 44.0 °F /  6.7 °C 32.6 °F /  0.3 °C 29.73in /  1006.7hPa West 6.0mph /  9.7km/h 13.0mph /  20.9km/h 64% 0.00in /  0mm
11:34 43.9 °F /  6.6 °C 33.3 °F /  0.7 °C 29.73in /  1006.7hPa WNW 4.0mph /  6.4km/h 11.0mph /  17.7km/h 66% 0.00in /  0mm
11:39 43.8 °F /  6.6 °C 33.2 °F /  0.7 °C 29.73in /  1006.7hPa West 4.0mph /  6.4km/h 8.0mph /  12.9km/h 66% 0.00in /  0mm
11:44 43.9 °F /  6.6 °C 34.0 °F /  1.1 °C 29.73in /  1006.7hPa WNW 4.0mph /  6.4km/h 10.0mph /  16.1km/h 68% 0.00in /  0mm
11:49 44.0 °F /  6.7 °C 34.1 °F /  1.2 °C 29.73in /  1006.7hPa WNW 5.0mph /  8km/h 11.0mph /  17.7km/h 68% 0.00in /  0mm
11:54 44.0 °F /  6.7 °C 34.5 °F /  1.4 °C 29.73in /  1006.7hPa WNW 5.0mph /  8km/h 11.0mph /  17.7km/h 69% 0.00in /  0mm
11:59 43.8 °F /  6.6 °C 33.9 °F /  1.1 °C 29.73in /  1006.7hPa West 7.0mph /  11.3km/h 11.0mph /  17.7km/h 68% 0.00in /  0mm
12:04 43.9 °F /  6.6 °C 34.0 °F /  1.1 °C 29.73in /  1006.7hPa WSW 4.0mph /  6.4km/h 11.0mph /  17.7km/h 68% 0.00in /  0mm
12:09 44.0 °F /  6.7 °C 34.5 °F /  1.4 °C 29.73in /  1006.7hPa WSW 6.0mph /  9.7km/h 11.0mph /  17.7km/h 69% 0.00in /  0mm
12:14 44.2 °F /  6.8 °C 34.3 °F /  1.3 °C 29.73in /  1006.7hPa WNW 5.0mph /  8km/h 12.0mph /  19.3km/h 68% 0.00in /  0mm
12:19 44.5 °F /  6.9 °C 34.6 °F /  1.4 °C 29.74in /  1007hPa WNW 6.0mph /  9.7km/h 12.0mph /  19.3km/h 68% 0.00in /  0mm
12:24 44.5 °F /  6.9 °C 34.2 °F /  1.2 °C 29.73in /  1006.7hPa WNW 6.0mph /  9.7km/h 11.0mph /  17.7km/h 67% 0.00in /  0mm
12:29 44.5 °F /  6.9 °C 34.2 °F /  1.2 °C 29.74in /  1007hPa West 6.0mph /  9.7km/h 12.0mph /  19.3km/h 67% 0.00in /  0mm
12:34 44.5 °F /  6.9 °C 34.6 °F /  1.4 °C 29.74in /  1007hPa WNW 3.0mph /  4.8km/h 10.0mph /  16.1km/h 68% 0.00in /  0mm
12:39 44.5 °F /  6.9 °C 34.2 °F /  1.2 °C 29.73in /  1006.7hPa WSW 3.0mph /  4.8km/h 11.0mph /  17.7km/h 67% 0.00in /  0mm
12:44 44.5 °F /  6.9 °C 35.0 °F /  1.7 °C 29.74in /  1007hPa WSW 3.0mph /  4.8km/h 8.0mph /  12.9km/h 69% 0.00in /  0mm
12:49 44.5 °F /  6.9 °C 35.7 °F /  2.1 °C 29.74in /  1007hPa West 4.0mph /  6.4km/h 8.0mph /  12.9km/h 71% 0.00in /  0mm
12:54 44.4 °F /  6.9 °C 35.6 °F /  2 °C 29.74in /  1007hPa West 4.0mph /  6.4km/h 8.0mph /  12.9km/h 71% 0.00in /  0mm
12:59 44.5 °F /  6.9 °C 35.7 °F /  2.1 °C 29.74in /  1007hPa West 4.0mph /  6.4km/h 8.0mph /  12.9km/h 71% 0.00in /  0mm
13:04 44.9 °F /  7.2 °C 36.1 °F /  2.3 °C 29.74in /  1007hPa WSW 3.0mph /  4.8km/h 7.0mph /  11.3km/h 71% 0.00in /  0mm
13:09 45.6 °F /  7.6 °C 36.0 °F /  2.2 °C 29.74in /  1007hPa NW 3.0mph /  4.8km/h 8.0mph /  12.9km/h 69% 0.00in /  0mm
13:14 45.9 °F /  7.7 °C 35.9 °F /  2.2 °C 29.74in /  1007hPa West 4.0mph /  6.4km/h 9.0mph /  14.5km/h 68% 0.00in /  0mm
13:19 46.2 °F /  7.9 °C 35.8 °F /  2.1 °C 29.74in /  1007hPa WNW 5.0mph /  8km/h 11.0mph /  17.7km/h 67% 0.00in /  0mm
13:24 46.5 °F /  8.1 °C 36.1 °F /  2.3 °C 29.74in /  1007hPa WNW 5.0mph /  8km/h 11.0mph /  17.7km/h 67% 0.00in /  0mm
13:29 46.9 °F /  8.3 °C 36.1 °F /  2.3 °C 29.74in /  1007hPa WNW 7.0mph /  11.3km/h 10.0mph /  16.1km/h 66% 0.00in /  0mm
13:34 47.3 °F /  8.5 °C 36.5 °F /  2.5 °C 29.74in /  1007hPa NW 7.0mph /  11.3km/h 10.0mph /  16.1km/h 66% 0.00in /  0mm
13:39 47.6 °F /  8.7 °C 36.4 °F /  2.4 °C 29.74in /  1007hPa WSW 4.0mph /  6.4km/h 11.0mph /  17.7km/h 65% 0.00in /  0mm
13:44 47.4 °F /  8.6 °C 36.2 °F /  2.3 °C 29.74in /  1007hPa West 8.0mph /  12.9km/h 11.0mph /  17.7km/h 65% 0.00in /  0mm
13:49 47.2 °F /  8.4 °C 36.0 °F /  2.2 °C 29.74in /  1007hPa West 7.0mph /  11.3km/h 10.0mph /  16.1km/h 65% 0.00in /  0mm
13:54 47.3 °F /  8.5 °C 36.1 °F /  2.3 °C 29.74in /  1007hPa WNW 6.0mph /  9.7km/h 10.0mph /  16.1km/h 65% 0.00in /  0mm
13:59 47.0 °F /  8.3 °C 36.2 °F /  2.3 °C 29.74in /  1007hPa WNW 5.0mph /  8km/h 10.0mph /  16.1km/h 66% 0.00in /  0mm
14:04 47.4 °F /  8.6 °C 36.6 °F /  2.6 °C 29.74in /  1007hPa WNW 5.0mph /  8km/h 11.0mph /  17.7km/h 66% 0.00in /  0mm
14:09 47.6 °F /  8.7 °C 36.4 °F /  2.4 °C 29.74in /  1007hPa WNW 4.0mph /  6.4km/h 11.0mph /  17.7km/h 65% 0.00in /  0mm
14:14 47.4 °F /  8.6 °C 35.8 °F /  2.1 °C 29.75in /  1007.3hPa WNW 5.0mph /  8km/h 12.0mph /  19.3km/h 64% 0.00in /  0mm
14:19 47.3 °F /  8.5 °C 36.1 °F /  2.3 °C 29.74in /  1007hPa West 6.0mph /  9.7km/h 9.0mph /  14.5km/h 65% 0.00in /  0mm
14:24 47.5 °F /  8.6 °C 36.3 °F /  2.4 °C 29.75in /  1007.3hPa West 3.0mph /  4.8km/h 8.0mph /  12.9km/h 65% 0.00in /  0mm
14:29 47.5 °F /  8.6 °C 36.3 °F /  2.4 °C 29.75in /  1007.3hPa WNW 4.0mph /  6.4km/h 10.0mph /  16.1km/h 65% 0.00in /  0mm
14:34 47.6 °F /  8.7 °C 36.4 °F /  2.4 °C 29.75in /  1007.3hPa NNW 5.0mph /  8km/h 7.0mph /  11.3km/h 65% 0.00in /  0mm
14:39 47.8 °F /  8.8 °C 36.6 °F /  2.6 °C 29.75in /  1007.3hPa West 7.0mph /  11.3km/h 9.0mph /  14.5km/h 65% 0.00in /  0mm
14:44 48.0 °F /  8.9 °C 36.4 °F /  2.4 °C 29.75in /  1007.3hPa West 9.0mph /  14.5km/h 9.0mph /  14.5km/h 64% 0.00in /  0mm
14:49 47.6 °F /  8.7 °C 36.4 °F /  2.4 °C 29.75in /  1007.3hPa WNW 3.0mph /  4.8km/h 9.0mph /  14.5km/h 65% 0.00in /  0mm
14:54 47.7 °F /  8.7 °C 36.1 °F /  2.3 °C 29.75in /  1007.3hPa West 5.0mph /  8km/h 9.0mph /  14.5km/h 64% 0.00in /  0mm
14:59 48.0 °F /  8.9 °C 37.9 °F /  3.3 °C 29.75in /  1007.3hPa West 3.0mph /  4.8km/h 7.0mph /  11.3km/h 68% 0.00in /  0mm
15:04 48.0 °F /  8.9 °C 39.4 °F /  4.1 °C 29.75in /  1007.3hPa WSW 4.0mph /  6.4km/h 9.0mph /  14.5km/h 72% 0.00in /  0mm
15:09 48.0 °F /  8.9 °C 39.4 °F /  4.1 °C 29.75in /  1007.3hPa WSW 5.0mph /  8km/h 11.0mph /  17.7km/h 72% 0.00in /  0mm
15:14 47.7 °F /  8.7 °C 39.8 °F /  4.3 °C 29.75in /  1007.3hPa West 5.0mph /  8km/h 10.0mph /  16.1km/h 74% 0.00in /  0mm
15:19 47.3 °F /  8.5 °C 39.1 °F /  3.9 °C 29.75in /  1007.3hPa SW 4.0mph /  6.4km/h 9.0mph /  14.5km/h 73% 0.00in /  0mm
15:24 47.5 °F /  8.6 °C 39.3 °F /  4.1 °C 29.75in /  1007.3hPa WSW 6.0mph /  9.7km/h 12.0mph /  19.3km/h 73% 0.00in /  0mm
15:29 48.0 °F /  8.9 °C 40.5 °F /  4.7 °C 29.75in /  1007.3hPa WSW 6.0mph /  9.7km/h 12.0mph /  19.3km/h 75% 0.00in /  0mm
15:34 47.8 °F /  8.8 °C 39.9 °F /  4.4 °C 29.75in /  1007.3hPa WSW 3.0mph /  4.8km/h 12.0mph /  19.3km/h 74% 0.00in /  0mm
15:39 47.3 °F /  8.5 °C 39.4 °F /  4.1 °C 29.75in /  1007.3hPa WSW 9.0mph /  14.5km/h 14.0mph /  22.5km/h 74% 0.00in /  0mm
15:44 46.9 °F /  8.3 °C 39.4 °F /  4.1 °C 29.75in /  1007.3hPa WSW 6.0mph /  9.7km/h 12.0mph /  19.3km/h 75% 0.00in /  0mm
15:49 46.7 °F /  8.2 °C 39.5 °F /  4.2 °C 29.76in /  1007.7hPa WSW 7.0mph /  11.3km/h 15.0mph /  24.1km/h 76% 0.00in /  0mm
15:54 47.3 °F /  8.5 °C 40.1 °F /  4.5 °C 29.76in /  1007.7hPa SW 6.0mph /  9.7km/h 15.0mph /  24.1km/h 76% 0.00in /  0mm
15:59 47.2 °F /  8.4 °C 39.7 °F /  4.3 °C 29.76in /  1007.7hPa WSW 6.0mph /  9.7km/h 12.0mph /  19.3km/h 75% 0.00in /  0mm
16:04 47.6 °F /  8.7 °C 40.4 °F /  4.7 °C 29.76in /  1007.7hPa WSW 5.0mph /  8km/h 12.0mph /  19.3km/h 76% 0.00in /  0mm
16:09 47.6 °F /  8.7 °C 39.7 °F /  4.3 °C 29.76in /  1007.7hPa WSW 4.0mph /  6.4km/h 10.0mph /  16.1km/h 74% 0.00in /  0mm
16:14 47.6 °F /  8.7 °C 40.1 °F /  4.5 °C 29.76in /  1007.7hPa WSW 5.0mph /  8km/h 12.0mph /  19.3km/h 75% 0.00in /  0mm
16:19 47.6 °F /  8.7 °C 40.1 °F /  4.5 °C 29.76in /  1007.7hPa SW 7.0mph /  11.3km/h 8.0mph /  12.9km/h 75% 0.00in /  0mm
16:24 47.7 °F /  8.7 °C 40.5 °F /  4.7 °C 29.76in /  1007.7hPa SW 5.0mph /  8km/h 10.0mph /  16.1km/h 76% 0.00in /  0mm
16:29 48.0 °F /  8.9 °C 40.5 °F /  4.7 °C 29.76in /  1007.7hPa WSW 5.0mph /  8km/h 10.0mph /  16.1km/h 75% 0.00in /  0mm
16:34 48.9 °F /  9.4 °C 41.0 °F /  5 °C 29.76in /  1007.7hPa WSW 3.0mph /  4.8km/h 8.0mph /  12.9km/h 74% 0.00in /  0mm
16:39 49.6 °F /  9.8 °C 40.9 °F /  4.9 °C 29.76in /  1007.7hPa West 3.0mph /  4.8km/h 7.0mph /  11.3km/h 72% 0.00in /  0mm
16:44 49.8 °F /  9.9 °C 38.5 °F /  3.6 °C 29.76in /  1007.7hPa WNW 4.0mph /  6.4km/h 11.0mph /  17.7km/h 65% 0.00in /  0mm
16:49 50.5 °F /  10.3 °C 37.5 °F /  3.1 °C 29.76in /  1007.7hPa WNW 5.0mph /  8km/h 11.0mph /  17.7km/h 61% 0.00in /  0mm
16:54 50.8 °F /  10.4 °C 37.4 °F /  3 °C 29.76in /  1007.7hPa West 5.0mph /  8km/h 9.0mph /  14.5km/h 60% 0.00in /  0mm
16:59 52.2 °F /  11.2 °C 38.3 °F /  3.5 °C 29.76in /  1007.7hPa NNE 3.0mph /  4.8km/h 12.0mph /  19.3km/h 59% 0.00in /  0mm
17:04 51.2 °F /  10.7 °C 36.5 °F /  2.5 °C 29.76in /  1007.7hPa NW 4.0mph /  6.4km/h 10.0mph /  16.1km/h 57% 0.00in /  0mm
17:09 50.8 °F /  10.4 °C 37.8 °F /  3.2 °C 29.77in /  1008hPa North 7.0mph /  11.3km/h 11.0mph /  17.7km/h 61% 0.00in /  0mm
17:14 50.5 °F /  10.3 °C 36.7 °F /  2.6 °C 29.77in /  1008hPa WNW 4.0mph /  6.4km/h 12.0mph /  19.3km/h 59% 0.00in /  0mm
17:19 50.8 °F /  10.4 °C 36.5 °F /  2.5 °C 29.77in /  1008hPa WNW 5.0mph /  8km/h 14.0mph /  22.5km/h 58% 0.00in /  0mm
17:24 50.4 °F /  10.2 °C 35.7 °F /  2.1 °C 29.77in /  1008hPa North 2.0mph /  3.2km/h 17.0mph /  27.4km/h 57% 0.00in /  0mm
17:29 50.2 °F /  10.1 °C 36.0 °F /  2.2 °C 29.77in /  1008hPa WNW 5.0mph /  8km/h 12.0mph /  19.3km/h 58% 0.00in /  0mm
17:34 50.1 °F /  10.1 °C 36.3 °F /  2.4 °C 29.77in /  1008hPa West 7.0mph /  11.3km/h 12.0mph /  19.3km/h 59% 0.00in /  0mm
17:39 50.2 °F /  10.1 °C 36.0 °F /  2.2 °C 29.77in /  1008hPa NNW 9.0mph /  14.5km/h 15.0mph /  24.1km/h 58% 0.00in /  0mm
17:44 50.2 °F /  10.1 °C 36.0 °F /  2.2 °C 29.78in /  1008.4hPa West 6.0mph /  9.7km/h 15.0mph /  24.1km/h 58% 0.00in /  0mm
17:49 49.9 °F /  9.9 °C 35.3 °F /  1.8 °C 29.78in /  1008.4hPa WNW 5.0mph /  8km/h 14.0mph /  22.5km/h 57% 0.00in /  0mm
17:54 49.8 °F /  9.9 °C 35.6 °F /  2 °C 29.78in /  1008.4hPa WNW 7.0mph /  11.3km/h 14.0mph /  22.5km/h 58% 0.00in /  0mm
17:59 50.1 °F /  10.1 °C 35.4 °F /  1.9 °C 29.78in /  1008.4hPa WNW 8.0mph /  12.9km/h 15.0mph /  24.1km/h 57% 0.00in /  0mm
18:04 50.1 °F /  10.1 °C 35.9 °F /  2.2 °C 29.78in /  1008.4hPa WNW 8.0mph /  12.9km/h 15.0mph /  24.1km/h 58% 0.00in /  0mm
18:09 50.7 °F /  10.4 °C 35.6 °F /  2 °C 29.78in /  1008.4hPa WNW 7.0mph /  11.3km/h 13.0mph /  20.9km/h 56% 0.00in /  0mm
18:14 50.0 °F /  10 °C 35.4 °F /  1.9 °C 29.79in /  1008.7hPa WNW 7.0mph /  11.3km/h 14.0mph /  22.5km/h 57% 0.00in /  0mm
18:19 49.4 °F /  9.7 °C 34.3 °F /  1.3 °C 29.79in /  1008.7hPa NW 6.0mph /  9.7km/h 14.0mph /  22.5km/h 56% 0.00in /  0mm
18:24 49.3 °F /  9.6 °C 34.7 °F /  1.5 °C 29.79in /  1008.7hPa NNW 3.0mph /  4.8km/h 13.0mph /  20.9km/h 57% 0.00in /  0mm
18:29 49.1 °F /  9.5 °C 34.5 °F /  1.4 °C 29.79in /  1008.7hPa NW 5.0mph /  8km/h 13.0mph /  20.9km/h 57% 0.00in /  0mm
18:34 49.1 °F /  9.5 °C 34.1 °F /  1.2 °C 29.79in /  1008.7hPa NNW 5.0mph /  8km/h 12.0mph /  19.3km/h 56% 0.00in /  0mm
18:39 49.2 °F /  9.6 °C 34.2 °F /  1.2 °C 29.79in /  1008.7hPa NW 4.0mph /  6.4km/h 14.0mph /  22.5km/h 56% 0.00in /  0mm
18:44 49.3 °F /  9.6 °C 35.1 °F /  1.7 °C 29.80in /  1009hPa North 5.0mph /  8km/h 12.0mph /  19.3km/h 58% 0.00in /  0mm
18:49 49.4 °F /  9.7 °C 34.8 °F /  1.6 °C 29.80in /  1009hPa NNW 12.0mph /  19.3km/h 15.0mph /  24.1km/h 57% 0.00in /  0mm
18:54 49.2 °F /  9.6 °C 34.6 °F /  1.4 °C 29.80in /  1009hPa NW 7.0mph /  11.3km/h 16.0mph /  25.7km/h 57% 0.00in /  0mm
18:59 48.9 °F /  9.4 °C 34.8 °F /  1.6 °C 29.80in /  1009hPa NW 7.0mph /  11.3km/h 18.0mph /  29km/h 58% 0.00in /  0mm
19:04 48.8 °F /  9.3 °C 35.1 °F /  1.7 °C 29.81in /  1009.4hPa NW 6.0mph /  9.7km/h 18.0mph /  29km/h 59% 0.00in /  0mm
19:09 48.9 °F /  9.4 °C 34.3 °F /  1.3 °C 29.81in /  1009.4hPa NW 5.0mph /  8km/h 12.0mph /  19.3km/h 57% 0.00in /  0mm
19:14 48.8 °F /  9.3 °C 34.2 °F /  1.2 °C 29.81in /  1009.4hPa WNW 4.0mph /  6.4km/h 18.0mph /  29km/h 57% 0.00in /  0mm
19:19 48.7 °F /  9.3 °C 35.0 °F /  1.7 °C 29.82in /  1009.7hPa NW 4.0mph /  6.4km/h 13.0mph /  20.9km/h 59% 0.00in /  0mm
19:24 48.3 °F /  9.1 °C 34.2 °F /  1.2 °C 29.82in /  1009.7hPa NW 7.0mph /  11.3km/h 20.0mph /  32.2km/h 58% 0.00in /  0mm
19:29 47.8 °F /  8.8 °C 34.2 °F /  1.2 °C 29.82in /  1009.7hPa NW 8.0mph /  12.9km/h 20.0mph /  32.2km/h 59% 0.00in /  0mm
19:34 47.4 °F /  8.6 °C 34.2 °F /  1.2 °C 29.82in /  1009.7hPa NW 7.0mph /  11.3km/h 16.0mph /  25.7km/h 60% 0.00in /  0mm
19:39 46.9 °F /  8.3 °C 34.1 °F /  1.2 °C 29.83in /  1010hPa NW 6.0mph /  9.7km/h 13.0mph /  20.9km/h 61% 0.00in /  0mm
19:44 46.6 °F /  8.1 °C 33.9 °F /  1.1 °C 29.83in /  1010hPa NW 4.0mph /  6.4km/h 11.0mph /  17.7km/h 61% 0.00in /  0mm
19:49 46.5 °F /  8.1 °C 34.2 °F /  1.2 °C 29.83in /  1010hPa NW 4.0mph /  6.4km/h 14.0mph /  22.5km/h 62% 0.00in /  0mm
19:54 46.5 °F /  8.1 °C 34.6 °F /  1.4 °C 29.83in /  1010hPa NW 5.0mph /  8km/h 14.0mph /  22.5km/h 63% 0.00in /  0mm
19:59 46.4 °F /  8 °C 34.5 °F /  1.4 °C 29.83in /  1010hPa West 4.0mph /  6.4km/h 7.0mph /  11.3km/h 63% 0.00in /  0mm
20:04 46.2 °F /  7.9 °C 34.3 °F /  1.3 °C 29.84in /  1010.4hPa NW 2.0mph /  3.2km/h 10.0mph /  16.1km/h 63% 0.00in /  0mm
20:09 45.9 °F /  7.7 °C 34.4 °F /  1.3 °C 29.84in /  1010.4hPa WNW 1.0mph /  1.6km/h 7.0mph /  11.3km/h 64% 0.00in /  0mm
20:14 45.8 °F /  7.7 °C 34.3 °F /  1.3 °C 29.84in /  1010.4hPa West 4.0mph /  6.4km/h 11.0mph /  17.7km/h 64% 0.00in /  0mm
20:19 45.8 °F /  7.7 °C 34.3 °F /  1.3 °C 29.84in /  1010.4hPa WNW 5.0mph /  8km/h 9.0mph /  14.5km/h 64% 0.00in /  0mm
20:24 45.9 °F /  7.7 °C 34.4 °F /  1.3 °C 29.85in /  1010.7hPa WNW 4.0mph /  6.4km/h 9.0mph /  14.5km/h 64% 0.00in /  0mm
20:29 46.1 °F /  7.8 °C 34.6 °F /  1.4 °C 29.85in /  1010.7hPa NW 5.0mph /  8km/h 10.0mph /  16.1km/h 64% 0.00in /  0mm
20:34 46.1 °F /  7.8 °C 34.6 °F /  1.4 °C 29.85in /  1010.7hPa NW 4.0mph /  6.4km/h 10.0mph /  16.1km/h 64% 0.00in /  0mm
20:39 46.0 °F /  7.8 °C 34.5 °F /  1.4 °C 29.85in /  1010.7hPa NW 3.0mph /  4.8km/h 11.0mph /  17.7km/h 64% 0.00in /  0mm
20:44 46.0 °F /  7.8 °C 34.1 °F /  1.2 °C 29.85in /  1010.7hPa NW 4.0mph /  6.4km/h 12.0mph /  19.3km/h 63% 0.00in /  0mm
20:49 46.0 °F /  7.8 °C 34.1 °F /  1.2 °C 29.86in /  1011.1hPa NW 5.0mph /  8km/h 12.0mph /  19.3km/h 63% 0.00in /  0mm
20:54 46.0 °F /  7.8 °C 34.1 °F /  1.2 °C 29.86in /  1011.1hPa NW 6.0mph /  9.7km/h 12.0mph /  19.3km/h 63% 0.00in /  0mm
20:59 45.9 °F /  7.7 °C 34.4 °F /  1.3 °C 29.86in /  1011.1hPa NNW 6.0mph /  9.7km/h 12.0mph /  19.3km/h 64% 0.00in /  0mm
21:04 45.7 °F /  7.6 °C 34.6 °F /  1.4 °C 29.86in /  1011.1hPa NW 8.0mph /  12.9km/h 11.0mph /  17.7km/h 65% 0.00in /  0mm
21:09 45.6 °F /  7.6 °C 34.9 °F /  1.6 °C 29.86in /  1011.1hPa North 6.0mph /  9.7km/h 8.0mph /  12.9km/h 66% 0.00in /  0mm
21:14 45.4 °F /  7.4 °C 34.3 °F /  1.3 °C 29.87in /  1011.4hPa NW 5.0mph /  8km/h 9.0mph /  14.5km/h 65% 0.00in /  0mm
21:19 45.2 °F /  7.3 °C 34.1 °F /  1.2 °C 29.87in /  1011.4hPa WNW 2.0mph /  3.2km/h 10.0mph /  16.1km/h 65% 0.00in /  0mm
21:24 45.0 °F /  7.2 °C 33.9 °F /  1.1 °C 29.87in /  1011.4hPa NW 3.0mph /  4.8km/h 10.0mph /  16.1km/h 65% 0.00in /  0mm
21:29 44.7 °F /  7.1 °C 34.0 °F /  1.1 °C 29.87in /  1011.4hPa NW 2.0mph /  3.2km/h 6.0mph /  9.7km/h 66% 0.00in /  0mm
21:34 44.8 °F /  7.1 °C 34.1 °F /  1.2 °C 29.87in /  1011.4hPa NW 3.0mph /  4.8km/h 7.0mph /  11.3km/h 66% 0.00in /  0mm
21:39 44.8 °F /  7.1 °C 33.7 °F /  0.9 °C 29.87in /  1011.4hPa NW 3.0mph /  4.8km/h 7.0mph /  11.3km/h 65% 0.00in /  0mm
21:44 44.8 °F /  7.1 °C 34.1 °F /  1.2 °C 29.87in /  1011.4hPa NW 1.0mph /  1.6km/h 6.0mph /  9.7km/h 66% 0.00in /  0mm
21:49 44.8 °F /  7.1 °C 34.1 °F /  1.2 °C 29.87in /  1011.4hPa NNW 1.0mph /  1.6km/h 6.0mph /  9.7km/h 66% 0.00in /  0mm
21:54 44.6 °F /  7 °C 33.9 °F /  1.1 °C 29.88in /  1011.7hPa NW 3.0mph /  4.8km/h 6.0mph /  9.7km/h 66% 0.00in /  0mm
21:59 44.5 °F /  6.9 °C 33.8 °F /  1 °C 29.88in /  1011.7hPa NW 2.0mph /  3.2km/h 5.0mph /  8km/h 66% 0.00in /  0mm
22:04 44.5 °F /  6.9 °C 33.8 °F /  1 °C 29.88in /  1011.7hPa NW 2.0mph /  3.2km/h 4.0mph /  6.4km/h 66% 0.00in /  0mm
22:09 44.4 °F /  6.9 °C 34.1 °F /  1.2 °C 29.88in /  1011.7hPa NNW 4.0mph /  6.4km/h 4.0mph /  6.4km/h 67% 0.00in /  0mm
22:14 44.4 °F /  6.9 °C 34.1 °F /  1.2 °C 29.88in /  1011.7hPa Calm   4.0mph /  6.4km/h 67% 0.00in /  0mm
22:19 44.4 °F /  6.9 °C 34.1 °F /  1.2 °C 29.88in /  1011.7hPa NW 3.0mph /  4.8km/h 6.0mph /  9.7km/h 67% 0.00in /  0mm
22:24 44.4 °F /  6.9 °C 34.1 °F /  1.2 °C 29.88in /  1011.7hPa NW 2.0mph /  3.2km/h 6.0mph /  9.7km/h 67% 0.00in /  0mm
22:29 44.4 °F /  6.9 °C 33.7 °F /  0.9 °C 29.88in /  1011.7hPa NNW 2.0mph /  3.2km/h 4.0mph /  6.4km/h 66% 0.00in /  0mm
22:39 44.4 °F /  6.9 °C 33.7 °F /  0.9 °C 29.88in /  1011.7hPa NW 2.0mph /  3.2km/h 3.0mph /  4.8km/h 66% 0.00in /  0mm
22:44 44.3 °F /  6.8 °C 33.3 °F /  0.7 °C 29.88in /  1011.7hPa Calm   5.0mph /  8km/h 65% 0.00in /  0mm
22:49 44.4 °F /  6.9 °C 33.4 °F /  0.8 °C 29.88in /  1011.7hPa Calm   4.0mph /  6.4km/h 65% 0.00in /  0mm
22:54 44.3 °F /  6.8 °C 33.3 °F /  0.7 °C 29.88in /  1011.7hPa Calm   3.0mph /  4.8km/h 65% 0.00in /  0mm
22:59 44.2 °F /  6.8 °C 33.2 °F /  0.7 °C 29.88in /  1011.7hPa NNW 1.0mph /  1.6km/h 3.0mph /  4.8km/h 65% 0.00in /  0mm
23:04 44.1 °F /  6.7 °C 33.5 °F /  0.8 °C 29.88in /  1011.7hPa Calm     66% 0.00in /  0mm
23:09 44.1 °F /  6.7 °C 33.1 °F /  0.6 °C 29.88in /  1011.7hPa Calm     65% 0.00in /  0mm
23:14 44.1 °F /  6.7 °C 33.5 °F /  0.8 °C 29.88in /  1011.7hPa Calm     66% 0.00in /  0mm
23:19 43.9 °F /  6.6 °C 34.0 °F /  1.1 °C 29.88in /  1011.7hPa NNW 1.0mph /  1.6km/h 2.0mph /  3.2km/h 68% 0.00in /  0mm
23:24 43.7 °F /  6.5 °C 33.5 °F /  0.8 °C 29.88in /  1011.7hPa NNW 1.0mph /  1.6km/h 2.0mph /  3.2km/h 67% 0.00in /  0mm
23:29 43.5 °F /  6.4 °C 33.6 °F /  0.9 °C 29.88in /  1011.7hPa Calm     68% 0.00in /  0mm
23:34 43.6 °F /  6.4 °C 33.4 °F /  0.8 °C 29.88in /  1011.7hPa NNW 2.0mph /  3.2km/h 3.0mph /  4.8km/h 67% 0.00in /  0mm
23:39 43.6 °F /  6.4 °C 33.4 °F /  0.8 °C 29.88in /  1011.7hPa Calm   2.0mph /  3.2km/h 67% 0.00in /  0mm
23:44 43.5 °F /  6.4 °C 31.7 °F /  -0.2 °C 29.89in /  1012.1hPa NNW 1.0mph /  1.6km/h 6.0mph /  9.7km/h 63% 0.00in /  0mm
23:49 43.5 °F /  6.4 °C 31.7 °F /  -0.2 °C 29.88in /  1011.7hPa NNW 2.0mph /  3.2km/h 3.0mph /  4.8km/h 63% 0.00in /  0mm
23:54 43.3 °F /  6.3 °C 31.9 °F /  -0.1 °C 29.88in /  1011.7hPa Calm   1.0mph /  1.6km/h 64% 0.00in /  0mm
23:59 43.2 °F /  6.2 °C 31.8 °F /  -0.1 °C 29.88in /  1011.7hPa Calm   4.0mph /  6.4km/h 64% 0.00in /  0mm
Buffalo, New York, USA
Compliments of Weather Underground - 2.5 mb